Time;durP1;ratioP1;P1;durP2;ratioP2;P2;SDS_P1;SDS_P2;PMS_P1;PMS_P2;Temp;Humidity;BMP_temperature;BMP_pressure;BME280_temperature;BME280_humidity;BME280_pressure;Samples;Min_cycle;Max_cycle;Signal;HPM_P1;HPM_P2
2024/04/02 00:01:18;;;;;;;28.20;7.50;;;;;;;16.81;55.37;100813.00;107139;1256;25497;-55
2024/04/02 00:03:45;;;;;;;26.70;7.40;;;;;;;16.81;55.40;100814.41;107138;1259;24212;-55
2024/04/02 00:06:12;;;;;;;31.50;8.20;;;;;;;16.81;55.40;100816.89;107213;1256;23199;-56
2024/04/02 00:08:39;;;;;;;33.80;8.50;;;;;;;16.81;55.45;100811.63;106940;1259;24202;-55
2024/04/02 00:11:06;;;;;;;26.90;7.50;;;;;;;16.81;55.48;100812.67;106228;1259;1002902;-56
2024/04/02 00:13:37;;;;;;;29.30;8.30;;;;;;;16.81;55.47;100807.60;107148;1256;25520;-55
2024/04/02 00:16:05;;;;;;;27.40;7.50;;;;;;;16.82;55.41;100798.63;106661;1258;25362;-56
2024/04/02 00:18:32;;;;;;;26.30;7.60;;;;;;;16.82;55.51;100798.95;106796;1257;22536;-56
2024/04/02 00:21:00;;;;;;;24.80;8.70;;;;;;;16.83;55.51;100797.88;106721;1257;25363;-55
2024/04/02 00:23:27;;;;;;;21.80;6.80;;;;;;;16.82;55.58;100794.05;106827;1259;25538;-56
2024/04/02 00:26:03;;;;;;;23.70;8.30;;;;;;;16.82;55.52;100787.05;106735;1252;25344;-55
2024/04/02 00:28:30;;;;;;;29.30;7.40;;;;;;;16.81;55.52;100782.55;106795;1271;22538;-55
2024/04/02 00:31:01;;;;;;;23.40;7.90;;;;;;;16.79;55.53;100784.38;106767;1256;25355;-57
2024/04/02 00:33:29;;;;;;;30.90;8.00;;;;;;;16.78;55.57;100780.92;107121;1254;25368;-55
2024/04/02 00:36:03;;;;;;;25.20;6.80;;;;;;;16.79;55.56;100781.24;106929;1267;25344;-55
2024/04/02 00:38:31;;;;;;;24.30;7.00;;;;;;;16.78;55.57;100777.77;107104;1252;25247;-55
2024/04/02 00:40:58;;;;;;;28.10;7.30;;;;;;;16.78;55.56;100777.95;107099;1256;25498;-55
2024/04/02 00:43:25;;;;;;;30.10;7.40;;;;;;;16.78;55.53;100776.56;107076;1270;22628;-55
2024/04/02 00:45:53;;;;;;;36.80;7.70;;;;;;;16.78;55.58;100772.34;107113;1263;25498;-55
2024/04/02 00:48:20;;;;;;;36.30;8.00;;;;;;;16.78;55.59;100768.30;107118;1260;24304;-55
2024/04/02 00:50:47;;;;;;;32.90;6.90;;;;;;;16.79;55.51;100759.88;107095;1253;25379;-55
2024/04/02 00:53:14;;;;;;;27.10;6.90;;;;;;;16.79;55.51;100756.52;106981;1259;25449;-55
2024/04/02 00:55:43;;;;;;;26.70;7.70;;;;;;;16.80;55.45;100749.65;106956;1258;25362;-55
2024/04/02 00:58:10;;;;;;;29.20;7.60;;;;;;;16.79;55.41;100750.73;107014;1266;22546;-55
2024/04/02 01:00:37;;;;;;;22.20;7.40;;;;;;;16.79;55.41;100751.80;106985;1259;25428;-56
2024/04/02 01:03:05;;;;;;;26.40;7.20;;;;;;;16.80;55.45;100753.34;107022;1259;25379;-55
2024/04/02 01:05:36;;;;;;;31.10;6.50;;;;;;;16.79;55.36;100749.50;107049;1256;25363;-55
2024/04/02 01:08:04;;;;;;;26.90;7.90;;;;;;;16.80;55.39;100744.20;107145;1256;25354;-55
2024/04/02 01:10:32;;;;;;;29.40;8.50;;;;;;;16.79;55.33;100735.15;107077;1256;22531;-56
2024/04/02 01:12:59;;;;;;;28.10;8.50;;;;;;;16.79;55.41;100735.34;107065;1253;22545;-55
2024/04/02 01:15:26;;;;;;;34.40;7.60;;;;;;;16.79;55.41;100733.42;106967;1257;25422;-55
2024/04/02 01:17:54;;;;;;;28.80;8.10;;;;;;;16.78;55.49;100731.33;107063;1265;25344;-55
2024/04/02 01:20:21;;;;;;;28.80;6.90;;;;;;;16.78;55.47;100730.83;107048;1258;25352;-55
2024/04/02 01:22:49;;;;;;;23.80;6.50;;;;;;;16.77;55.54;100731.74;106698;1265;24205;-55
2024/04/02 01:25:23;;;;;;;25.20;6.90;;;;;;;16.77;55.53;100739.30;107204;1254;25419;-55
2024/04/02 01:27:50;;;;;;;30.20;7.90;;;;;;;16.76;55.61;100731.09;107082;1256;25351;-55
2024/04/02 01:30:17;;;;;;;28.40;7.70;;;;;;;16.76;55.62;100734.58;107058;1256;25351;-55
2024/04/02 01:32:44;;;;;;;25.40;6.90;;;;;;;16.76;55.69;100729.85;106838;1261;25371;-55
2024/04/02 01:35:14;;;;;;;31.20;9.50;;;;;;;16.76;55.74;100721.61;106744;1262;24391;-56
2024/04/02 01:37:41;;;;;;;32.60;8.80;;;;;;;16.77;55.75;100722.46;107119;1259;25425;-55
2024/04/02 01:40:09;;;;;;;30.10;8.80;;;;;;;16.78;55.68;100719.61;107004;1256;25379;-55
2024/04/02 01:42:36;;;;;;;30.40;8.00;;;;;;;16.77;55.74;100714.75;107103;1256;25425;-55
2024/04/02 01:45:04;;;;;;;30.10;7.90;;;;;;;16.77;55.79;100713.20;106860;1274;25358;-55
2024/04/02 01:47:32;;;;;;;27.30;7.20;;;;;;;16.77;55.76;100713.02;106878;1258;22627;-55
2024/04/02 01:49:59;;;;;;;33.80;7.90;;;;;;;16.77;55.74;100717.54;107068;1256;25396;-56
2024/04/02 01:52:26;;;;;;;33.10;8.90;;;;;;;16.77;55.71;100711.44;107116;1255;22536;-55
2024/04/02 01:54:53;;;;;;;29.40;7.20;;;;;;;16.78;55.71;100705.97;106865;1274;25373;-55
2024/04/02 01:57:20;;;;;;;28.90;7.50;;;;;;;16.77;55.68;100701.43;107021;1259;25360;-55
2024/04/02 01:59:47;;;;;;;38.60;10.20;;;;;;;16.77;55.70;100698.83;107082;1259;25459;-55
2024/04/02 02:02:14;;;;;;;34.50;7.60;;;;;;;16.76;55.70;100694.46;107063;1259;25354;-55
2024/04/02 02:04:41;;;;;;;24.20;7.70;;;;;;;16.76;55.70;100689.92;106860;1271;25491;-55
2024/04/02 02:07:08;;;;;;;23.20;8.20;;;;;;;16.76;55.75;100690.27;107049;1253;25355;-55
2024/04/02 02:09:35;;;;;;;30.90;8.10;;;;;;;16.75;55.70;100686.13;107018;1259;25359;-55
2024/04/02 02:12:03;;;;;;;31.60;9.00;;;;;;;16.75;55.70;100687.38;106834;1274;25351;-55
2024/04/02 02:14:30;;;;;;;34.90;9.10;;;;;;;16.75;55.73;100687.89;107031;1256;25369;-55
2024/04/02 02:16:57;;;;;;;27.20;7.10;;;;;;;16.74;55.69;100687.21;107085;1257;25379;-55
2024/04/02 02:19:24;;;;;;;29.70;8.10;;;;;;;16.74;55.71;100680.04;107230;1255;25369;-55
2024/04/02 02:21:51;;;;;;;23.30;6.60;;;;;;;16.74;55.80;100678.28;107116;1265;24229;-55
2024/04/02 02:24:18;;;;;;;29.50;7.70;;;;;;;16.74;55.79;100672.52;107075;1259;25428;-55
2024/04/02 02:26:45;;;;;;;33.00;8.10;;;;;;;16.74;55.74;100672.67;107007;1262;25340;-56
2024/04/02 02:29:12;;;;;;;23.80;6.80;;;;;;;16.75;55.66;100678.09;107074;1256;25431;-56
2024/04/02 02:31:40;;;;;;;27.00;7.80;;;;;;;16.73;55.67;100676.04;107090;1252;25351;-55
2024/04/02 02:34:07;;;;;;;34.70;7.70;;;;;;;16.73;55.73;100675.02;107059;1257;25344;-55
2024/04/02 02:36:34;;;;;;;24.80;7.30;;;;;;;16.73;55.67;100674.32;106798;1261;25354;-55
2024/04/02 02:39:04;;;;;;;29.50;7.70;;;;;;;16.73;55.72;100678.55;107047;1259;25388;-55
2024/04/02 02:41:31;;;;;;;30.60;7.70;;;;;;;16.74;55.73;100672.35;107077;1256;25380;-55
2024/04/02 02:43:58;;;;;;;33.30;7.80;;;;;;;16.74;55.74;100673.02;107128;1264;25358;-55
2024/04/02 02:46:25;;;;;;;27.90;7.70;;;;;;;16.74;55.81;100669.71;107075;1262;25351;-55
2024/04/02 02:48:52;;;;;;;32.40;8.40;;;;;;;16.74;55.80;100667.96;107048;1269;25369;-55
2024/04/02 02:51:19;;;;;;;29.40;6.90;;;;;;;16.75;55.84;100668.98;107111;1266;25341;-55
2024/04/02 02:53:46;;;;;;;28.70;7.10;;;;;;;16.75;55.81;100664.95;106920;1267;25369;-55
2024/04/02 02:56:14;;;;;;;29.00;7.70;;;;;;;16.75;55.87;100664.59;107110;1265;25501;-55
2024/04/02 02:58:42;;;;;;;27.30;8.30;;;;;;;16.76;55.86;100661.73;107216;1251;25373;-55
2024/04/02 03:01:09;;;;;;;22.80;6.70;;;;;;;16.76;55.87;100660.34;106887;1259;25355;-56
2024/04/02 03:03:36;;;;;;;31.10;7.50;;;;;;;16.76;55.89;100654.38;107150;1259;25351;-55
2024/04/02 03:06:04;;;;;;;27.30;7.40;;;;;;;16.76;55.89;100647.17;107050;1267;25501;-55
2024/04/02 03:08:31;;;;;;;32.80;8.00;;;;;;;16.76;55.88;100644.38;106965;1264;24240;-55
2024/04/02 03:11:05;;;;;;;22.60;7.00;;;;;;;16.76;55.89;100641.23;107091;1257;25428;-55
2024/04/02 03:13:33;;;;;;;30.90;7.50;;;;;;;16.76;55.88;100641.06;106799;1252;25351;-56
2024/04/02 03:16:01;;;;;;;23.70;7.60;;;;;;;16.76;55.85;100635.59;107050;1256;25333;-55
2024/04/02 03:18:28;;;;;;;18.60;5.40;;;;;;;16.77;55.85;100635.41;107091;1256;25370;-55
2024/04/02 03:20:56;;;;;;;27.90;8.30;;;;;;;16.77;55.85;100641.21;107110;1259;25354;-55
2024/04/02 03:23:23;;;;;;;22.90;6.40;;;;;;;16.77;55.89;100639.96;107140;1257;25426;-55
2024/04/02 03:25:54;;;;;;;38.60;8.40;;;;;;;16.76;55.81;100639.81;106895;1262;23888;-56
2024/04/02 03:28:21;;;;;;;25.50;6.60;;;;;;;16.76;55.83;100639.11;106765;1260;25365;-57
2024/04/02 03:30:48;;;;;;;26.30;7.60;;;;;;;16.76;55.87;100637.19;106888;1257;22538;-55
2024/04/02 03:33:15;;;;;;;35.00;7.70;;;;;;;16.76;55.83;100633.15;107009;1257;25500;-55
2024/04/02 03:35:42;;;;;;;27.40;7.10;;;;;;;16.76;55.92;100639.98;106490;1267;25399;-55
2024/04/02 03:38:09;;;;;;;30.50;8.10;;;;;;;16.76;55.87;100641.21;106816;1260;25397;-55
2024/04/02 03:40:39;;;;;;;28.70;8.10;;;;;;;16.76;55.86;100640.37;106555;1269;25475;-55
2024/04/02 03:43:06;;;;;;;21.30;6.70;;;;;;;16.77;55.91;100639.63;106378;1265;22641;-55
2024/04/02 03:45:42;;;;;;;24.40;6.30;;;;;;;16.77;55.89;100640.67;106905;1257;25369;-55
2024/04/02 03:48:10;;;;;;;30.30;6.30;;;;;;;16.75;55.90;100639.34;106659;1270;25371;-55
2024/04/02 03:50:37;;;;;;;33.30;7.00;;;;;;;16.74;56.01;100633.45;107121;1259;25350;-55
2024/04/02 03:53:04;;;;;;;19.90;6.20;;;;;;;16.74;55.99;100637.83;107099;1259;25344;-55
2024/04/02 03:55:33;;;;;;;22.90;6.20;;;;;;;16.73;56.00;100635.95;106862;1267;25382;-56
2024/04/02 03:58:00;;;;;;;27.90;6.70;;;;;;;16.72;56.11;100632.48;106730;1260;25207;-56
2024/04/02 04:00:27;;;;;;;33.80;8.70;;;;;;;16.74;56.09;100628.21;107088;1256;24362;-55
2024/04/02 04:02:55;;;;;;;25.00;6.80;;;;;;;16.74;56.10;100623.80;107184;1257;25359;-56
2024/04/02 04:05:22;;;;;;;23.30;7.70;;;;;;;16.75;56.11;100623.96;107034;1260;25428;-55
2024/04/02 04:07:50;;;;;;;30.20;7.70;;;;;;;16.76;56.06;100619.66;106834;1264;25358;-55
2024/04/02 04:10:17;;;;;;;25.00;6.40;;;;;;;16.78;56.08;100608.21;107072;1261;25417;-55
2024/04/02 04:12:44;;;;;;;21.50;5.80;;;;;;;16.79;55.99;100606.06;107225;1260;25341;-55
2024/04/02 04:15:11;;;;;;;29.20;5.70;;;;;;;16.80;56.04;100602.86;107056;1260;24245;-55
2024/04/02 04:17:38;;;;;;;21.50;6.10;;;;;;;16.80;56.01;100601.95;106805;1266;25533;-55
2024/04/02 04:20:10;;;;;;;25.40;6.70;;;;;;;16.80;56.08;100595.98;106806;1269;25354;-56
2024/04/02 04:22:37;;;;;;;24.90;6.70;;;;;;;16.81;56.10;100591.74;106129;1274;22541;-55
2024/04/02 04:25:05;;;;;;;25.80;6.50;;;;;;;16.83;56.06;100585.55;106816;1266;24212;-55
2024/04/02 04:27:33;;;;;;;26.70;6.70;;;;;;;16.83;56.14;100586.23;106996;1262;26634;-55
2024/04/02 04:30:00;;;;;;;28.20;7.50;;;;;;;16.83;56.06;100578.30;106988;1256;25240;-55
2024/04/02 04:32:27;;;;;;;23.10;6.80;;;;;;;16.85;56.08;100580.88;106679;1274;25344;-55
2024/04/02 04:34:54;;;;;;;25.40;6.70;;;;;;;16.87;56.11;100578.67;107087;1254;25249;-55
2024/04/02 04:37:22;;;;;;;21.50;7.80;;;;;;;16.89;56.11;100576.64;106789;1259;25341;-55
2024/04/02 04:39:49;;;;;;;22.50;6.90;;;;;;;16.91;56.06;100575.46;106338;1256;1003231;-55
2024/04/02 04:42:16;;;;;;;30.60;7.50;;;;;;;16.94;55.96;100579.02;106649;1268;25425;-55
2024/04/02 04:44:43;;;;;;;25.10;7.10;;;;;;;16.94;55.90;100585.29;107053;1256;25369;-55
2024/04/02 04:47:11;;;;;;;28.00;6.60;;;;;;;16.98;55.86;100577.75;107028;1258;25365;-55
2024/04/02 04:49:38;;;;;;;23.00;6.80;;;;;;;17.01;55.75;100578.79;107004;1257;25351;-55
2024/04/02 04:52:06;;;;;;;27.90;7.60;;;;;;;17.03;55.73;100578.02;106778;1266;25344;-56
2024/04/02 04:54:33;;;;;;;24.40;7.10;;;;;;;17.05;55.63;100570.70;106850;1266;22539;-55
2024/04/02 04:57:00;;;;;;;30.50;7.90;;;;;;;17.08;55.59;100566.00;106906;1264;25540;-55
2024/04/02 04:59:27;;;;;;;29.50;7.20;;;;;;;17.12;55.48;100567.20;107165;1256;25341;-55
2024/04/02 05:01:54;;;;;;;27.70;7.00;;;;;;;17.16;55.42;100567.53;106811;1265;25348;-55
2024/04/02 05:04:21;;;;;;;30.40;7.30;;;;;;;17.20;55.33;100571.19;106564;1262;25501;-55
2024/04/02 05:06:49;;;;;;;24.50;7.20;;;;;;;17.24;55.29;100575.53;106932;1270;22761;-55
2024/04/02 05:09:16;;;;;;;29.50;6.30;;;;;;;17.28;55.26;100575.66;106605;1274;25487;-55
2024/04/02 05:11:43;;;;;;;21.60;6.80;;;;;;;17.33;55.09;100573.14;106924;1260;25468;-55
2024/04/02 05:14:11;;;;;;;25.00;6.30;;;;;;;17.38;54.96;100565.66;107110;1264;25351;-55
2024/04/02 05:16:38;;;;;;;19.40;6.20;;;;;;;17.43;54.91;100554.20;106999;1257;25404;-55
2024/04/02 05:19:05;;;;;;;27.10;6.90;;;;;;;17.47;54.79;100548.70;107135;1266;25501;-55
2024/04/02 05:21:33;;;;;;;32.50;7.90;;;;;;;17.48;54.70;100546.21;107107;1256;25422;-56
2024/04/02 05:24:00;;;;;;;27.10;7.30;;;;;;;17.46;54.77;100541.91;106962;1260;25501;-55
2024/04/02 05:26:27;;;;;;;27.80;7.10;;;;;;;17.55;54.54;100539.83;107025;1259;25352;-55
2024/04/02 05:28:54;;;;;;;33.70;7.60;;;;;;;17.65;54.35;100532.30;106878;1267;25431;-56
2024/04/02 05:31:21;;;;;;;26.60;6.30;;;;;;;17.72;54.23;100527.36;106901;1258;25399;-55
2024/04/02 05:33:48;;;;;;;30.70;8.50;;;;;;;17.77;54.04;100522.15;107107;1261;25432;-55
2024/04/02 05:36:15;;;;;;;25.90;6.90;;;;;;;17.83;53.96;100521.13;106735;1273;25351;-56
2024/04/02 05:38:43;;;;;;;25.30;7.10;;;;;;;17.89;53.85;100512.86;106793;1261;25341;-55
2024/04/02 05:41:11;;;;;;;38.10;7.60;;;;;;;17.97;53.84;100510.20;106637;1259;22547;-55
2024/04/02 05:43:38;;;;;;;21.30;6.20;;;;;;;18.05;53.63;100506.04;106746;1257;25473;-55
2024/04/02 05:46:05;;;;;;;24.60;7.20;;;;;;;18.13;53.30;100497.34;106503;1270;25334;-56
2024/04/02 05:48:32;;;;;;;20.00;6.90;;;;;;;18.20;53.17;100503.77;105218;1267;1002817;-56
2024/04/02 05:50:59;;;;;;;24.30;5.90;;;;;;;18.27;52.91;100511.81;106739;1251;24333;-56
2024/04/02 05:53:26;;;;;;;26.30;7.00;;;;;;;18.32;52.70;100506.20;106819;1262;25324;-55
2024/04/02 05:55:53;;;;;;;21.60;6.50;;;;;;;18.38;52.46;100505.72;107173;1259;25407;-56
2024/04/02 05:58:20;;;;;;;24.90;7.50;;;;;;;18.43;52.34;100501.55;107094;1264;25324;-56
2024/04/02 06:00:47;;;;;;;22.80;7.30;;;;;;;18.49;52.18;100499.09;107145;1261;25341;-56
2024/04/02 06:03:15;;;;;;;21.90;6.00;;;;;;;18.58;51.93;100500.87;107120;1261;25359;-56
2024/04/02 06:05:42;;;;;;;38.70;8.10;;;;;;;18.66;51.80;100500.59;107108;1271;22517;-56
2024/04/02 06:08:09;;;;;;;24.30;7.40;;;;;;;18.74;51.59;100500.98;107002;1259;25358;-56
2024/04/02 06:10:36;;;;;;;24.80;6.40;;;;;;;18.84;51.38;100506.18;106930;1270;25470;-56
2024/04/02 06:13:03;;;;;;;23.30;6.20;;;;;;;18.91;51.01;100505.19;107089;1253;22627;-56
2024/04/02 06:15:31;;;;;;;28.90;6.90;;;;;;;19.01;50.67;100505.48;107043;1267;25386;-56
2024/04/02 06:17:58;;;;;;;24.70;7.00;;;;;;;19.11;50.55;100504.88;107063;1255;25344;-56
2024/04/02 06:20:25;;;;;;;32.80;6.50;;;;;;;19.19;50.18;100502.46;106524;1274;25363;-55
2024/04/02 06:22:52;;;;;;;21.20;6.80;;;;;;;19.26;49.91;100502.16;106822;1254;25421;-56
2024/04/02 06:25:19;;;;;;;25.00;6.50;;;;;;;19.31;49.61;100491.30;106856;1265;25348;-56
2024/04/02 06:27:46;;;;;;;21.90;6.80;;;;;;;19.39;49.37;100479.07;107072;1267;25539;-56
2024/04/02 06:30:13;;;;;;;26.90;7.10;;;;;;;19.46;49.27;100475.09;107120;1259;25372;-56
2024/04/02 06:32:40;;;;;;;23.00;6.60;;;;;;;19.53;48.98;100462.57;107091;1252;22527;-55
2024/04/02 06:35:07;;;;;;;24.00;6.30;;;;;;;19.59;48.75;100453.17;107097;1267;25379;-56
2024/04/02 06:37:35;;;;;;;23.20;6.50;;;;;;;19.64;48.45;100444.41;107118;1267;25346;-56
2024/04/02 06:40:02;;;;;;;23.00;6.20;;;;;;;19.68;48.32;100437.83;106880;1269;23870;-56
2024/04/02 06:42:31;;;;;;;21.90;5.60;;;;;;;19.73;48.25;100442.60;106848;1271;25351;-55
2024/04/02 06:44:58;;;;;;;23.00;5.80;;;;;;;19.78;48.11;100450.72;106701;1264;25331;-56
2024/04/02 06:47:25;;;;;;;22.60;5.70;;;;;;;19.82;47.78;100446.02;106680;1269;25440;-56
2024/04/02 06:49:52;;;;;;;21.30;6.60;;;;;;;19.85;47.66;100445.31;106368;1265;25429;-56
2024/04/02 06:52:19;;;;;;;26.00;6.30;;;;;;;19.87;47.45;100440.42;106789;1270;22551;-56
2024/04/02 06:54:46;;;;;;;24.30;6.20;;;;;;;19.89;47.36;100441.36;107053;1267;25500;-56
2024/04/02 06:57:13;;;;;;;21.00;6.10;;;;;;;19.89;47.21;100442.20;106721;1273;25444;-56
2024/04/02 06:59:40;;;;;;;21.50;5.80;;;;;;;19.91;47.26;100439.79;107135;1267;22764;-56
2024/04/02 07:02:07;;;;;;;24.20;5.70;;;;;;;19.93;47.15;100446.73;107094;1267;25354;-56
2024/04/02 07:04:36;;;;;;;21.00;6.40;;;;;;;19.93;47.23;100444.80;107069;1274;25484;-56
2024/04/02 07:07:03;;;;;;;24.30;7.00;;;;;;;19.96;47.05;100445.30;107160;1261;23870;-56
2024/04/02 07:09:31;;;;;;;28.60;5.90;;;;;;;20.00;47.10;100446.60;106997;1274;25491;-56
2024/04/02 07:11:58;;;;;;;19.60;6.50;;;;;;;20.05;46.89;100442.41;106949;1271;22542;-55
2024/04/02 07:14:25;;;;;;;26.50;7.20;;;;;;;20.11;46.77;100438.29;107082;1267;25524;-55
2024/04/02 07:16:54;;;;;;;23.30;5.70;;;;;;;20.20;46.70;100433.48;107111;1267;25388;-56
2024/04/02 07:19:23;;;;;;;31.30;6.60;;;;;;;20.31;46.39;100440.88;107107;1267;22629;-56
2024/04/02 07:21:50;;;;;;;23.90;6.30;;;;;;;20.42;46.35;100434.34;106875;1273;25542;-56
2024/04/02 07:24:17;;;;;;;24.70;5.80;;;;;;;20.54;46.03;100433.09;107124;1267;25341;-57
2024/04/02 07:26:44;;;;;;;25.70;7.50;;;;;;;20.67;45.81;100439.81;107028;1273;25249;-57
2024/04/02 07:29:11;;;;;;;28.40;7.20;;;;;;;20.78;45.63;100437.63;107199;1274;24260;-57
2024/04/02 07:31:38;;;;;;;31.20;7.00;;;;;;;20.87;45.57;100432.73;106946;1273;25624;-56
2024/04/02 07:34:05;;;;;;;31.00;7.10;;;;;;;20.92;45.43;100428.33;106868;1270;25537;-56
2024/04/02 07:36:32;;;;;;;27.30;6.60;;;;;;;20.94;45.25;100424.14;106706;1276;25362;-57
2024/04/02 07:38:59;;;;;;;19.60;6.30;;;;;;;20.92;45.14;100409.33;106992;1270;25360;-57
2024/04/02 07:41:27;;;;;;;30.60;7.20;;;;;;;20.87;44.97;100394.00;107176;1270;25389;-56
2024/04/02 07:43:54;;;;;;;29.90;6.70;;;;;;;20.79;45.10;100402.27;106810;1267;25400;-57
2024/04/02 07:46:23;;;;;;;23.10;6.90;;;;;;;20.70;45.13;100410.68;106957;1267;25366;-57
2024/04/02 07:48:50;;;;;;;24.10;6.40;;;;;;;20.61;45.17;100406.58;106963;1268;23413;-56
2024/04/02 07:51:17;;;;;;;21.70;8.10;;;;;;;20.53;45.38;100410.86;106831;1275;25529;-56
2024/04/02 07:53:46;;;;;;;25.50;6.80;;;;;;;20.46;45.67;100417.82;106659;1275;22599;-56
2024/04/02 07:56:14;;;;;;;24.80;6.70;;;;;;;20.40;45.72;100403.41;107343;1267;25500;-57
2024/04/02 07:58:41;;;;;;;25.10;7.50;;;;;;;20.37;46.04;100397.11;107214;1270;25352;-56
2024/04/02 08:01:08;;;;;;;31.40;6.80;;;;;;;20.36;46.14;100391.75;107062;1270;22531;-56
2024/04/02 08:03:35;;;;;;;25.00;6.80;;;;;;;20.36;46.02;100375.56;107133;1267;25393;-57
2024/04/02 08:06:03;;;;;;;23.50;7.10;;;;;;;20.35;46.11;100368.92;107086;1270;25359;-56
2024/04/02 08:08:30;;;;;;;30.60;6.90;;;;;;;20.34;46.15;100370.18;107098;1267;25383;-55
2024/04/02 08:10:57;;;;;;;25.60;6.50;;;;;;;20.33;46.24;100361.09;106720;1273;25413;-56
2024/04/02 08:13:24;;;;;;;29.10;7.50;;;;;;;20.34;46.08;100354.70;107144;1270;25490;-55
2024/04/02 08:15:52;;;;;;;23.20;5.70;;;;;;;20.34;46.09;100360.30;107072;1267;25407;-55
2024/04/02 08:18:19;;;;;;;25.80;6.70;;;;;;;20.34;46.00;100358.05;107221;1267;25493;-56
2024/04/02 08:20:46;;;;;;;25.60;7.80;;;;;;;20.31;46.04;100372.32;107035;1274;25362;-56
2024/04/02 08:23:13;;;;;;;28.30;6.80;;;;;;;20.29;46.34;100374.73;106876;1267;23372;-57
2024/04/02 08:25:41;;;;;;;29.00;8.20;;;;;;;20.30;46.27;100389.50;106864;1270;25414;-56
2024/04/02 08:28:08;;;;;;;26.40;6.70;;;;;;;20.30;46.09;100397.28;107240;1266;25489;-56
2024/04/02 08:30:36;;;;;;;22.40;6.10;;;;;;;20.28;46.14;100400.04;106843;1267;25354;-56
2024/04/02 08:33:03;;;;;;;22.50;6.60;;;;;;;20.25;46.26;100394.76;106964;1270;25498;-57
2024/04/02 08:35:30;;;;;;;24.20;6.80;;;;;;;20.23;46.35;100401.75;107000;1271;25364;-56
2024/04/02 08:37:57;;;;;;;28.60;6.90;;;;;;;20.21;46.39;100396.09;107265;1267;25369;-57
2024/04/02 08:40:27;;;;;;;24.70;7.00;;;;;;;20.22;46.55;100386.89;107121;1270;25482;-57
2024/04/02 08:42:55;;;;;;;31.40;7.20;;;;;;;20.25;46.71;100383.84;103515;1270;1016332;-57
2024/04/02 08:45:22;;;;;;;25.30;6.00;;;;;;;20.31;46.53;100379.73;106501;1267;1003024;-57
2024/04/02 08:47:49;;;;;;;25.70;6.70;;;;;;;20.35;46.47;100366.41;107120;1267;25547;-56
2024/04/02 08:50:16;;;;;;;27.60;7.90;;;;;;;20.39;46.39;100359.12;106781;1275;25494;-56
2024/04/02 08:52:43;;;;;;;28.70;6.90;;;;;;;20.43;46.13;100348.10;106612;1270;25491;-56
2024/04/02 08:55:11;;;;;;;30.10;6.60;;;;;;;20.44;46.06;100341.15;106951;1270;25363;-57
2024/04/02 08:57:38;;;;;;;25.00;6.30;;;;;;;20.41;46.26;100334.98;106619;1270;25474;-57
2024/04/02 09:00:08;;;;;;;26.90;7.90;;;;;;;20.40;46.18;100331.92;106410;1272;22543;-57
2024/04/02 09:02:36;;;;;;;30.00;8.60;;;;;;;20.39;46.38;100327.38;106653;1272;25429;-57
2024/04/02 09:05:04;;;;;;;26.70;7.00;;;;;;;20.40;46.41;100324.67;106496;1254;25344;-56
2024/04/02 09:07:31;;;;;;;24.20;6.90;;;;;;;20.41;46.39;100320.41;106405;1277;22533;-56
2024/04/02 09:09:58;;;;;;;22.90;7.40;;;;;;;20.40;46.18;100326.27;106640;1273;22554;-56
2024/04/02 09:12:26;;;;;;;26.00;6.90;;;;;;;20.38;46.19;100327.99;106679;1273;25567;-56
2024/04/02 09:14:53;;;;;;;32.00;7.40;;;;;;;20.35;46.33;100317.83;106703;1271;25703;-57
2024/04/02 09:17:20;;;;;;;28.10;7.30;;;;;;;20.35;46.30;100304.44;106730;1273;25900;-56
2024/04/02 09:19:47;;;;;;;28.20;6.90;;;;;;;20.37;46.55;100290.17;106372;1270;22524;-57
2024/04/02 09:22:17;;;;;;;30.50;7.80;;;;;;;20.44;46.55;100288.65;106862;1270;25426;-57
2024/04/02 09:24:44;;;;;;;22.80;6.60;;;;;;;20.54;46.33;100290.59;106710;1272;25397;-57
2024/04/02 09:27:11;;;;;;;23.60;6.60;;;;;;;20.62;46.21;100289.63;106778;1267;25354;-57
2024/04/02 09:29:38;;;;;;;29.30;7.80;;;;;;;20.70;46.21;100279.86;107047;1267;25417;-57
2024/04/02 09:32:06;;;;;;;21.90;7.00;;;;;;;20.78;45.98;100287.42;106979;1274;23187;-56
2024/04/02 09:34:34;;;;;;;25.30;7.30;;;;;;;20.84;45.77;100285.95;107059;1267;25539;-57
2024/04/02 09:37:34;;;;;;;23.50;6.20;;;;;;;20.88;45.60;100284.79;107115;1268;22538;-56
2024/04/02 09:40:05;;;;;;;28.70;7.20;;;;;;;20.93;45.64;100283.85;107041;1267;25364;-56
2024/04/02 09:42:33;;;;;;;22.70;7.40;;;;;;;20.97;45.56;100287.83;107081;1267;22790;-57
2024/04/02 09:45:00;;;;;;;25.50;6.90;;;;;;;20.98;45.35;100297.06;106975;1274;25500;-58
2024/04/02 09:47:28;;;;;;;25.40;5.70;;;;;;;20.99;45.30;100304.45;106787;1267;22554;-57
2024/04/02 09:49:56;;;;;;;24.60;6.50;;;;;;;20.99;45.31;100311.49;106961;1267;25450;-56
2024/04/02 09:52:23;;;;;;;32.20;8.60;;;;;;;20.99;45.33;100299.98;106818;1269;25389;-57
2024/04/02 09:54:50;;;;;;;27.20;7.70;;;;;;;21.01;45.36;100290.67;106308;1267;25363;-57
2024/04/02 09:57:18;;;;;;;23.70;6.40;;;;;;;21.04;45.20;100285.05;106736;1267;25294;-56
2024/04/02 09:59:45;;;;;;;27.50;7.40;;;;;;;21.05;45.31;100279.81;106120;1267;1003759;-56
2024/04/02 10:02:16;;;;;;;27.00;7.70;;;;;;;21.09;45.23;100277.13;106827;1270;25493;-57
2024/04/02 10:04:43;;;;;;;26.20;7.30;;;;;;;21.12;45.16;100276.06;106872;1267;24251;-57
2024/04/02 10:07:26;;;;;;;23.60;6.60;;;;;;;21.13;45.14;100275.98;107006;1267;25416;-57
2024/04/02 10:09:57;;;;;;;26.60;7.70;;;;;;;21.13;45.07;100269.27;107056;1267;25392;-56
2024/04/02 10:12:31;;;;;;;22.60;7.10;;;;;;;21.12;45.01;100265.77;107157;1267;25429;-56
2024/04/02 10:15:09;;;;;;;24.80;6.80;;;;;;;21.11;45.01;100261.48;106680;1267;24250;-57
2024/04/02 10:17:37;;;;;;;21.20;6.60;;;;;;;21.08;45.08;100262.23;106742;1270;25401;-57
2024/04/02 10:20:28;;;;;;;22.70;6.60;;;;;;;21.05;45.17;100279.69;106781;1270;24349;-57
2024/04/02 10:22:55;;;;;;;26.90;6.50;;;;;;;21.04;45.37;100267.74;106324;1279;25367;-57
2024/04/02 10:25:27;;;;;;;27.50;7.50;;;;;;;21.06;45.39;100266.58;106393;1276;25428;-57
2024/04/02 10:27:59;;;;;;;23.50;6.40;;;;;;;21.10;45.38;100261.52;106227;1276;24319;-57
2024/04/02 10:30:27;;;;;;;27.10;7.50;;;;;;;21.16;45.32;100270.94;106003;1276;25496;-57
2024/04/02 10:32:54;;;;;;;21.10;5.60;;;;;;;21.22;45.07;100277.59;106308;1282;22537;-57
2024/04/02 10:35:29;;;;;;;24.40;7.00;;;;;;;21.24;45.09;100272.14;106087;1277;24264;-57
2024/04/02 10:37:58;;;;;;;25.30;7.60;;;;;;;21.25;44.80;100290.26;106109;1277;25497;-55
2024/04/02 10:40:25;;;;;;;20.70;6.80;;;;;;;21.22;44.62;100283.89;106372;1276;24231;-56
2024/04/02 10:42:52;;;;;;;29.80;6.80;;;;;;;21.17;44.69;100272.50;106289;1276;25369;-57
2024/04/02 10:45:19;;;;;;;20.00;5.90;;;;;;;21.10;44.73;100276.89;106251;1279;22591;-57
2024/04/02 10:47:47;;;;;;;20.70;7.00;;;;;;;20.98;44.78;100274.02;106300;1272;25300;-56
2024/04/02 10:50:15;;;;;;;21.30;6.40;;;;;;;20.84;44.99;100270.40;106338;1276;25485;-57
2024/04/02 10:52:42;;;;;;;20.20;6.40;;;;;;;20.72;45.44;100265.79;106356;1273;25364;-57
2024/04/02 10:55:10;;;;;;;25.30;6.70;;;;;;;20.65;45.47;100278.30;106415;1260;24219;-57
2024/04/02 10:57:38;;;;;;;22.80;6.50;;;;;;;20.61;45.52;100280.04;106197;1274;247571;-57
2024/04/02 11:00:12;;;;;;;24.40;6.30;;;;;;;20.55;45.58;100276.55;106650;1272;24200;-57
2024/04/02 11:02:44;;;;;;;17.60;6.00;;;;;;;20.49;45.69;100269.98;107057;1267;22531;-57
2024/04/02 11:05:12;;;;;;;26.60;6.70;;;;;;;20.43;45.94;100268.83;107079;1267;25568;-57
2024/04/02 11:07:41;;;;;;;22.20;6.60;;;;;;;20.40;45.91;100261.60;106870;1269;25319;-57
2024/04/02 11:10:08;;;;;;;21.40;6.60;;;;;;;20.40;46.14;100260.77;107100;1267;25443;-58
2024/04/02 11:12:35;;;;;;;30.80;6.20;;;;;;;20.42;46.19;100262.91;107132;1270;25501;-57